sensor_id;sensor_type;location;lat;lon;timestamp;P1;durP1;ratioP1;P2;durP2;ratioP2
65315;SDS011;51920;53.952;10.292;2023-04-06T00:00:13;16.02;;;8.15;;
65315;SDS011;51920;53.952;10.292;2023-04-06T00:02:40;17.77;;;9.65;;
65315;SDS011;51920;53.952;10.292;2023-04-06T00:05:07;23.13;;;11.10;;
65315;SDS011;51920;53.952;10.292;2023-04-06T00:07:34;24.50;;;10.68;;
65315;SDS011;51920;53.952;10.292;2023-04-06T00:10:01;22.03;;;10.23;;
65315;SDS011;51920;53.952;10.292;2023-04-06T00:12:28;23.52;;;10.52;;
65315;SDS011;51920;53.952;10.292;2023-04-06T00:14:55;19.73;;;9.93;;
65315;SDS011;51920;53.952;10.292;2023-04-06T00:17:27;20.20;;;9.52;;
65315;SDS011;51920;53.952;10.292;2023-04-06T00:19:57;22.02;;;9.82;;
65315;SDS011;51920;53.952;10.292;2023-04-06T00:22:24;21.97;;;10.60;;
65315;SDS011;51920;53.952;10.292;2023-04-06T00:24:51;20.25;;;10.52;;
65315;SDS011;51920;53.952;10.292;2023-04-06T00:27:17;22.88;;;10.85;;
65315;SDS011;51920;53.952;10.292;2023-04-06T00:29:44;21.02;;;10.65;;
65315;SDS011;51920;53.952;10.292;2023-04-06T00:32:11;21.45;;;10.70;;
65315;SDS011;51920;53.952;10.292;2023-04-06T00:34:38;21.90;;;10.23;;
65315;SDS011;51920;53.952;10.292;2023-04-06T00:37:04;24.33;;;10.95;;
65315;SDS011;51920;53.952;10.292;2023-04-06T00:39:31;23.30;;;10.40;;
65315;SDS011;51920;53.952;10.292;2023-04-06T00:41:58;21.58;;;10.88;;
65315;SDS011;51920;53.952;10.292;2023-04-06T00:44:27;22.05;;;11.13;;
65315;SDS011;51920;53.952;10.292;2023-04-06T00:46:54;26.07;;;11.97;;
65315;SDS011;51920;53.952;10.292;2023-04-06T00:49:21;24.88;;;11.00;;
65315;SDS011;51920;53.952;10.292;2023-04-06T00:51:47;25.20;;;12.07;;
65315;SDS011;51920;53.952;10.292;2023-04-06T00:54:14;23.17;;;11.15;;
65315;SDS011;51920;53.952;10.292;2023-04-06T00:56:42;23.40;;;11.43;;
65315;SDS011;51920;53.952;10.292;2023-04-06T00:59:10;26.53;;;11.53;;
65315;SDS011;51920;53.952;10.292;2023-04-06T01:01:38;24.10;;;11.55;;
65315;SDS011;51920;53.952;10.292;2023-04-06T01:04:21;24.52;;;11.07;;
65315;SDS011;51920;53.952;10.292;2023-04-06T01:06:52;24.50;;;11.73;;
65315;SDS011;51920;53.952;10.292;2023-04-06T01:09:23;25.10;;;11.50;;
65315;SDS011;51920;53.952;10.292;2023-04-06T01:11:51;27.17;;;12.20;;
65315;SDS011;51920;53.952;10.292;2023-04-06T01:14:21;27.33;;;12.85;;
65315;SDS011;51920;53.952;10.292;2023-04-06T01:16:57;25.05;;;12.07;;
65315;SDS011;51920;53.952;10.292;2023-04-06T01:19:27;24.85;;;12.23;;
65315;SDS011;51920;53.952;10.292;2023-04-06T01:21:54;26.27;;;11.68;;
65315;SDS011;51920;53.952;10.292;2023-04-06T01:24:30;26.67;;;12.03;;
65315;SDS011;51920;53.952;10.292;2023-04-06T01:26:57;25.33;;;11.98;;
65315;SDS011;51920;53.952;10.292;2023-04-06T01:29:29;28.85;;;12.23;;
65315;SDS011;51920;53.952;10.292;2023-04-06T01:32:00;28.48;;;12.20;;
65315;SDS011;51920;53.952;10.292;2023-04-06T01:34:31;25.55;;;12.10;;
65315;SDS011;51920;53.952;10.292;2023-04-06T01:37:01;27.03;;;12.03;;
65315;SDS011;51920;53.952;10.292;2023-04-06T01:39:29;26.33;;;11.65;;
65315;SDS011;51920;53.952;10.292;2023-04-06T01:41:58;27.83;;;12.73;;
65315;SDS011;51920;53.952;10.292;2023-04-06T01:44:26;26.17;;;12.48;;
65315;SDS011;51920;53.952;10.292;2023-04-06T01:47:04;24.38;;;11.68;;
65315;SDS011;51920;53.952;10.292;2023-04-06T01:49:31;24.43;;;11.53;;
65315;SDS011;51920;53.952;10.292;2023-04-06T01:51:58;24.38;;;11.95;;
65315;SDS011;51920;53.952;10.292;2023-04-06T01:54:24;26.98;;;12.50;;
65315;SDS011;51920;53.952;10.292;2023-04-06T01:56:51;25.20;;;11.77;;
65315;SDS011;51920;53.952;10.292;2023-04-06T01:59:27;23.48;;;11.55;;
65315;SDS011;51920;53.952;10.292;2023-04-06T02:01:54;23.97;;;11.90;;
65315;SDS011;51920;53.952;10.292;2023-04-06T02:04:23;25.50;;;12.05;;
65315;SDS011;51920;53.952;10.292;2023-04-06T02:06:58;24.33;;;11.50;;
65315;SDS011;51920;53.952;10.292;2023-04-06T02:09:27;27.38;;;12.27;;
65315;SDS011;51920;53.952;10.292;2023-04-06T02:11:54;25.65;;;11.48;;
65315;SDS011;51920;53.952;10.292;2023-04-06T02:14:25;28.27;;;11.93;;
65315;SDS011;51920;53.952;10.292;2023-04-06T02:16:55;24.20;;;11.00;;
65315;SDS011;51920;53.952;10.292;2023-04-06T02:19:22;26.75;;;10.70;;
65315;SDS011;51920;53.952;10.292;2023-04-06T02:21:49;22.67;;;11.45;;
65315;SDS011;51920;53.952;10.292;2023-04-06T02:24:16;23.10;;;11.13;;
65315;SDS011;51920;53.952;10.292;2023-04-06T02:26:42;25.83;;;12.00;;
65315;SDS011;51920;53.952;10.292;2023-04-06T02:29:09;25.10;;;11.27;;
65315;SDS011;51920;53.952;10.292;2023-04-06T02:31:36;24.75;;;12.13;;
65315;SDS011;51920;53.952;10.292;2023-04-06T02:34:03;25.05;;;11.85;;
65315;SDS011;51920;53.952;10.292;2023-04-06T02:36:31;23.45;;;11.15;;
65315;SDS011;51920;53.952;10.292;2023-04-06T02:38:58;25.13;;;11.47;;
65315;SDS011;51920;53.952;10.292;2023-04-06T02:41:25;26.65;;;11.55;;
65315;SDS011;51920;53.952;10.292;2023-04-06T02:43:54;24.80;;;11.75;;
65315;SDS011;51920;53.952;10.292;2023-04-06T02:46:31;26.40;;;11.80;;
65315;SDS011;51920;53.952;10.292;2023-04-06T02:48:58;26.92;;;11.77;;
65315;SDS011;51920;53.952;10.292;2023-04-06T02:51:30;24.30;;;11.50;;
65315;SDS011;51920;53.952;10.292;2023-04-06T02:54:06;24.48;;;10.52;;
65315;SDS011;51920;53.952;10.292;2023-04-06T02:56:33;23.45;;;11.43;;
65315;SDS011;51920;53.952;10.292;2023-04-06T02:59:00;24.90;;;11.70;;
65315;SDS011;51920;53.952;10.292;2023-04-06T03:01:30;24.92;;;11.30;;
65315;SDS011;51920;53.952;10.292;2023-04-06T03:04:00;25.50;;;11.27;;
65315;SDS011;51920;53.952;10.292;2023-04-06T03:06:28;29.67;;;11.85;;
65315;SDS011;51920;53.952;10.292;2023-04-06T03:09:00;29.60;;;12.65;;
65315;SDS011;51920;53.952;10.292;2023-04-06T03:11:26;27.80;;;12.30;;
65315;SDS011;51920;53.952;10.292;2023-04-06T03:13:53;30.05;;;13.48;;
65315;SDS011;51920;53.952;10.292;2023-04-06T03:16:20;28.57;;;11.97;;
65315;SDS011;51920;53.952;10.292;2023-04-06T03:18:47;29.08;;;12.55;;
65315;SDS011;51920;53.952;10.292;2023-04-06T03:21:14;29.98;;;12.77;;
65315;SDS011;51920;53.952;10.292;2023-04-06T03:23:51;28.63;;;12.68;;
65315;SDS011;51920;53.952;10.292;2023-04-06T03:26:17;27.75;;;13.38;;
65315;SDS011;51920;53.952;10.292;2023-04-06T03:28:44;24.67;;;11.77;;
65315;SDS011;51920;53.952;10.292;2023-04-06T03:31:11;25.10;;;11.18;;
65315;SDS011;51920;53.952;10.292;2023-04-06T03:33:38;23.98;;;11.85;;
65315;SDS011;51920;53.952;10.292;2023-04-06T03:36:06;25.95;;;11.57;;
65315;SDS011;51920;53.952;10.292;2023-04-06T03:38:38;26.48;;;11.55;;
65315;SDS011;51920;53.952;10.292;2023-04-06T03:41:10;27.13;;;11.97;;
65315;SDS011;51920;53.952;10.292;2023-04-06T03:43:38;27.20;;;12.07;;
65315;SDS011;51920;53.952;10.292;2023-04-06T03:46:05;25.63;;;12.07;;
65315;SDS011;51920;53.952;10.292;2023-04-06T03:48:32;24.23;;;11.85;;
65315;SDS011;51920;53.952;10.292;2023-04-06T03:51:02;26.55;;;11.75;;
65315;SDS011;51920;53.952;10.292;2023-04-06T03:53:29;25.33;;;11.40;;
65315;SDS011;51920;53.952;10.292;2023-04-06T03:55:56;24.00;;;10.48;;
65315;SDS011;51920;53.952;10.292;2023-04-06T03:58:22;26.48;;;11.70;;
65315;SDS011;51920;53.952;10.292;2023-04-06T04:00:51;23.73;;;11.07;;
65315;SDS011;51920;53.952;10.292;2023-04-06T04:03:18;26.70;;;12.18;;
65315;SDS011;51920;53.952;10.292;2023-04-06T04:05:44;29.70;;;12.70;;
65315;SDS011;51920;53.952;10.292;2023-04-06T04:08:12;28.73;;;12.90;;
65315;SDS011;51920;53.952;10.292;2023-04-06T04:10:40;32.95;;;13.73;;
65315;SDS011;51920;53.952;10.292;2023-04-06T04:13:06;32.83;;;13.40;;
65315;SDS011;51920;53.952;10.292;2023-04-06T04:15:33;32.03;;;14.32;;
65315;SDS011;51920;53.952;10.292;2023-04-06T04:18:01;33.70;;;14.20;;
65315;SDS011;51920;53.952;10.292;2023-04-06T04:20:27;32.05;;;14.38;;
65315;SDS011;51920;53.952;10.292;2023-04-06T04:22:54;30.95;;;13.73;;
65315;SDS011;51920;53.952;10.292;2023-04-06T04:25:22;38.70;;;15.45;;
65315;SDS011;51920;53.952;10.292;2023-04-06T04:27:49;39.15;;;16.00;;
65315;SDS011;51920;53.952;10.292;2023-04-06T04:30:18;38.00;;;15.47;;
65315;SDS011;51920;53.952;10.292;2023-04-06T04:32:46;34.30;;;14.98;;
65315;SDS011;51920;53.952;10.292;2023-04-06T04:35:16;31.25;;;14.18;;
65315;SDS011;51920;53.952;10.292;2023-04-06T04:37:43;33.63;;;14.80;;
65315;SDS011;51920;53.952;10.292;2023-04-06T04:40:10;32.67;;;14.23;;
65315;SDS011;51920;53.952;10.292;2023-04-06T04:42:48;34.53;;;13.93;;
65315;SDS011;51920;53.952;10.292;2023-04-06T04:45:21;36.42;;;14.80;;
65315;SDS011;51920;53.952;10.292;2023-04-06T04:47:48;31.20;;;14.50;;
65315;SDS011;51920;53.952;10.292;2023-04-06T04:50:17;31.00;;;14.18;;
65315;SDS011;51920;53.952;10.292;2023-04-06T04:52:46;39.35;;;15.70;;
65315;SDS011;51920;53.952;10.292;2023-04-06T04:55:16;40.37;;;16.23;;
65315;SDS011;51920;53.952;10.292;2023-04-06T04:57:46;40.78;;;15.77;;
65315;SDS011;51920;53.952;10.292;2023-04-06T05:00:13;31.75;;;14.43;;
65315;SDS011;51920;53.952;10.292;2023-04-06T05:02:42;40.33;;;15.60;;
65315;SDS011;51920;53.952;10.292;2023-04-06T05:05:28;37.50;;;15.07;;
65315;SDS011;51920;53.952;10.292;2023-04-06T05:07:54;34.07;;;14.97;;
65315;SDS011;51920;53.952;10.292;2023-04-06T05:10:36;36.25;;;14.90;;
65315;SDS011;51920;53.952;10.292;2023-04-06T05:13:04;31.92;;;14.15;;
65315;SDS011;51920;53.952;10.292;2023-04-06T05:15:30;32.53;;;13.70;;
65315;SDS011;51920;53.952;10.292;2023-04-06T05:18:04;33.55;;;14.20;;
65315;SDS011;51920;53.952;10.292;2023-04-06T05:20:34;33.30;;;13.67;;
65315;SDS011;51920;53.952;10.292;2023-04-06T05:23:01;28.00;;;13.30;;
65315;SDS011;51920;53.952;10.292;2023-04-06T05:25:29;31.05;;;13.93;;
65315;SDS011;51920;53.952;10.292;2023-04-06T05:28:02;31.27;;;13.80;;
65315;SDS011;51920;53.952;10.292;2023-04-06T05:30:32;35.35;;;15.07;;
65315;SDS011;51920;53.952;10.292;2023-04-06T05:32:59;28.87;;;12.23;;
65315;SDS011;51920;53.952;10.292;2023-04-06T05:35:31;30.55;;;14.13;;
65315;SDS011;51920;53.952;10.292;2023-04-06T05:38:07;37.33;;;14.30;;
65315;SDS011;51920;53.952;10.292;2023-04-06T05:40:36;33.28;;;15.30;;
65315;SDS011;51920;53.952;10.292;2023-04-06T05:43:07;33.88;;;14.70;;
65315;SDS011;51920;53.952;10.292;2023-04-06T05:45:36;36.87;;;15.73;;
65315;SDS011;51920;53.952;10.292;2023-04-06T05:48:04;40.70;;;16.90;;
65315;SDS011;51920;53.952;10.292;2023-04-06T05:50:31;44.33;;;16.33;;
65315;SDS011;51920;53.952;10.292;2023-04-06T05:52:59;36.97;;;15.85;;
65315;SDS011;51920;53.952;10.292;2023-04-06T05:55:32;38.97;;;16.15;;
65315;SDS011;51920;53.952;10.292;2023-04-06T05:58:09;41.13;;;16.47;;
65315;SDS011;51920;53.952;10.292;2023-04-06T06:00:36;41.83;;;16.88;;
65315;SDS011;51920;53.952;10.292;2023-04-06T06:03:05;38.50;;;15.73;;
65315;SDS011;51920;53.952;10.292;2023-04-06T06:05:34;40.38;;;16.65;;
65315;SDS011;51920;53.952;10.292;2023-04-06T06:08:11;40.42;;;16.42;;
65315;SDS011;51920;53.952;10.292;2023-04-06T06:10:38;34.77;;;15.20;;
65315;SDS011;51920;53.952;10.292;2023-04-06T06:13:08;30.63;;;14.10;;
65315;SDS011;51920;53.952;10.292;2023-04-06T06:15:38;34.50;;;14.48;;
65315;SDS011;51920;53.952;10.292;2023-04-06T06:18:05;29.45;;;13.43;;
65315;SDS011;51920;53.952;10.292;2023-04-06T06:20:32;29.75;;;13.32;;
65315;SDS011;51920;53.952;10.292;2023-04-06T06:23:02;29.07;;;13.60;;
65315;SDS011;51920;53.952;10.292;2023-04-06T06:25:29;28.00;;;12.60;;
65315;SDS011;51920;53.952;10.292;2023-04-06T06:27:59;28.17;;;13.60;;
65315;SDS011;51920;53.952;10.292;2023-04-06T06:30:28;24.55;;;11.85;;
65315;SDS011;51920;53.952;10.292;2023-04-06T06:32:56;24.98;;;12.02;;
65315;SDS011;51920;53.952;10.292;2023-04-06T06:35:23;24.37;;;11.60;;
65315;SDS011;51920;53.952;10.292;2023-04-06T06:37:50;22.50;;;11.68;;
65315;SDS011;51920;53.952;10.292;2023-04-06T06:40:20;23.38;;;10.95;;
65315;SDS011;51920;53.952;10.292;2023-04-06T06:42:50;20.90;;;10.30;;
65315;SDS011;51920;53.952;10.292;2023-04-06T06:45:28;21.23;;;11.20;;
65315;SDS011;51920;53.952;10.292;2023-04-06T06:47:55;20.70;;;10.50;;
65315;SDS011;51920;53.952;10.292;2023-04-06T06:50:22;20.90;;;11.15;;
65315;SDS011;51920;53.952;10.292;2023-04-06T06:52:49;22.95;;;11.40;;
65315;SDS011;51920;53.952;10.292;2023-04-06T06:55:16;22.08;;;11.45;;
65315;SDS011;51920;53.952;10.292;2023-04-06T06:57:45;21.98;;;11.15;;
65315;SDS011;51920;53.952;10.292;2023-04-06T07:00:15;21.57;;;10.97;;
65315;SDS011;51920;53.952;10.292;2023-04-06T07:02:44;21.48;;;11.23;;
65315;SDS011;51920;53.952;10.292;2023-04-06T07:05:11;22.63;;;11.00;;
65315;SDS011;51920;53.952;10.292;2023-04-06T07:07:41;21.50;;;10.63;;
65315;SDS011;51920;53.952;10.292;2023-04-06T07:10:08;20.67;;;11.43;;
65315;SDS011;51920;53.952;10.292;2023-04-06T07:12:37;20.37;;;10.77;;
65315;SDS011;51920;53.952;10.292;2023-04-06T07:15:04;19.58;;;10.88;;
65315;SDS011;51920;53.952;10.292;2023-04-06T07:17:32;19.73;;;11.02;;
65315;SDS011;51920;53.952;10.292;2023-04-06T07:19:59;18.48;;;10.27;;
65315;SDS011;51920;53.952;10.292;2023-04-06T07:22:26;18.08;;;10.48;;
65315;SDS011;51920;53.952;10.292;2023-04-06T07:24:52;18.67;;;10.40;;
65315;SDS011;51920;53.952;10.292;2023-04-06T07:27:19;16.42;;;9.88;;
65315;SDS011;51920;53.952;10.292;2023-04-06T07:29:46;18.13;;;10.38;;
65315;SDS011;51920;53.952;10.292;2023-04-06T07:32:12;16.17;;;9.48;;
65315;SDS011;51920;53.952;10.292;2023-04-06T07:34:39;16.17;;;9.43;;
65315;SDS011;51920;53.952;10.292;2023-04-06T07:37:06;17.33;;;9.77;;
65315;SDS011;51920;53.952;10.292;2023-04-06T07:39:33;16.73;;;9.88;;
65315;SDS011;51920;53.952;10.292;2023-04-06T07:42:03;17.35;;;10.20;;
65315;SDS011;51920;53.952;10.292;2023-04-06T07:44:30;15.85;;;9.90;;
65315;SDS011;51920;53.952;10.292;2023-04-06T07:46:57;18.23;;;10.57;;
65315;SDS011;51920;53.952;10.292;2023-04-06T07:49:24;16.50;;;9.87;;
65315;SDS011;51920;53.952;10.292;2023-04-06T07:51:51;16.63;;;9.85;;
65315;SDS011;51920;53.952;10.292;2023-04-06T07:54:18;17.23;;;10.00;;
65315;SDS011;51920;53.952;10.292;2023-04-06T07:56:45;15.20;;;10.00;;
65315;SDS011;51920;53.952;10.292;2023-04-06T07:59:11;14.82;;;9.70;;
65315;SDS011;51920;53.952;10.292;2023-04-06T08:01:39;15.13;;;9.27;;
65315;SDS011;51920;53.952;10.292;2023-04-06T08:04:06;16.75;;;9.43;;
65315;SDS011;51920;53.952;10.292;2023-04-06T08:06:33;15.32;;;9.20;;
65315;SDS011;51920;53.952;10.292;2023-04-06T08:09:00;14.57;;;9.18;;
65315;SDS011;51920;53.952;10.292;2023-04-06T08:11:27;15.60;;;9.20;;
65315;SDS011;51920;53.952;10.292;2023-04-06T08:13:54;14.83;;;9.20;;
65315;SDS011;51920;53.952;10.292;2023-04-06T08:16:23;14.68;;;9.13;;
65315;SDS011;51920;53.952;10.292;2023-04-06T08:18:50;13.27;;;8.93;;
65315;SDS011;51920;53.952;10.292;2023-04-06T08:21:16;14.38;;;9.10;;
65315;SDS011;51920;53.952;10.292;2023-04-06T08:23:43;16.50;;;9.10;;
65315;SDS011;51920;53.952;10.292;2023-04-06T08:26:10;14.83;;;9.23;;
65315;SDS011;51920;53.952;10.292;2023-04-06T08:28:37;17.48;;;9.60;;
65315;SDS011;51920;53.952;10.292;2023-04-06T08:31:04;14.00;;;7.95;;
65315;SDS011;51920;53.952;10.292;2023-04-06T08:33:32;13.18;;;7.88;;
65315;SDS011;51920;53.952;10.292;2023-04-06T08:36:09;12.57;;;8.43;;
65315;SDS011;51920;53.952;10.292;2023-04-06T08:38:39;11.23;;;6.73;;
65315;SDS011;51920;53.952;10.292;2023-04-06T08:41:15;10.52;;;6.72;;
65315;SDS011;51920;53.952;10.292;2023-04-06T08:43:46;11.98;;;7.13;;
65315;SDS011;51920;53.952;10.292;2023-04-06T08:46:15;9.70;;;6.22;;
65315;SDS011;51920;53.952;10.292;2023-04-06T08:48:42;10.75;;;6.28;;
65315;SDS011;51920;53.952;10.292;2023-04-06T08:51:09;8.67;;;5.40;;
65315;SDS011;51920;53.952;10.292;2023-04-06T08:53:39;8.70;;;5.50;;
65315;SDS011;51920;53.952;10.292;2023-04-06T08:56:08;10.45;;;5.95;;
65315;SDS011;51920;53.952;10.292;2023-04-06T08:58:37;8.10;;;5.45;;
65315;SDS011;51920;53.952;10.292;2023-04-06T09:01:07;9.90;;;5.60;;
65315;SDS011;51920;53.952;10.292;2023-04-06T09:03:39;9.70;;;5.43;;
65315;SDS011;51920;53.952;10.292;2023-04-06T09:06:07;9.25;;;5.70;;
65315;SDS011;51920;53.952;10.292;2023-04-06T09:08:35;9.88;;;6.25;;
65315;SDS011;51920;53.952;10.292;2023-04-06T09:11:06;9.00;;;5.82;;
65315;SDS011;51920;53.952;10.292;2023-04-06T09:16:17;8.43;;;5.40;;
65315;SDS011;51920;53.952;10.292;2023-04-06T09:18:44;7.72;;;5.28;;
65315;SDS011;51920;53.952;10.292;2023-04-06T09:21:12;8.38;;;5.20;;
65315;SDS011;51920;53.952;10.292;2023-04-06T09:23:39;8.85;;;5.43;;
65315;SDS011;51920;53.952;10.292;2023-04-06T09:26:07;8.82;;;5.03;;
65315;SDS011;51920;53.952;10.292;2023-04-06T09:31:12;10.13;;;5.40;;
65315;SDS011;51920;53.952;10.292;2023-04-06T09:33:44;6.65;;;4.70;;
65315;SDS011;51920;53.952;10.292;2023-04-06T09:36:11;7.03;;;4.55;;
65315;SDS011;51920;53.952;10.292;2023-04-06T09:38:50;7.72;;;4.47;;
65315;SDS011;51920;53.952;10.292;2023-04-06T09:41:25;6.17;;;4.17;;
65315;SDS011;51920;53.952;10.292;2023-04-06T09:46:32;6.90;;;4.10;;
65315;SDS011;51920;53.952;10.292;2023-04-06T09:49:21;6.57;;;4.30;;
65315;SDS011;51920;53.952;10.292;2023-04-06T09:51:52;5.47;;;4.15;;
65315;SDS011;51920;53.952;10.292;2023-04-06T09:54:21;5.93;;;4.37;;
65315;SDS011;51920;53.952;10.292;2023-04-06T09:57:01;7.13;;;4.50;;
65315;SDS011;51920;53.952;10.292;2023-04-06T09:59:57;6.13;;;4.15;;
65315;SDS011;51920;53.952;10.292;2023-04-06T10:07:52;6.83;;;4.60;;
65315;SDS011;51920;53.952;10.292;2023-04-06T10:10:25;8.45;;;4.55;;
65315;SDS011;51920;53.952;10.292;2023-04-06T10:12:53;6.13;;;4.50;;
65315;SDS011;51920;53.952;10.292;2023-04-06T10:15:21;7.20;;;4.50;;
65315;SDS011;51920;53.952;10.292;2023-04-06T10:17:48;6.20;;;4.47;;
65315;SDS011;51920;53.952;10.292;2023-04-06T10:20:16;6.40;;;4.40;;
65315;SDS011;51920;53.952;10.292;2023-04-06T10:22:53;6.43;;;3.70;;
65315;SDS011;51920;53.952;10.292;2023-04-06T10:25:26;6.88;;;4.55;;
65315;SDS011;51920;53.952;10.292;2023-04-06T10:27:59;5.93;;;3.70;;
65315;SDS011;51920;53.952;10.292;2023-04-06T10:30:28;6.85;;;4.25;;
65315;SDS011;51920;53.952;10.292;2023-04-06T10:32:55;7.30;;;4.27;;
65315;SDS011;51920;53.952;10.292;2023-04-06T10:35:22;5.13;;;4.05;;
65315;SDS011;51920;53.952;10.292;2023-04-06T10:38:00;5.90;;;3.85;;
65315;SDS011;51920;53.952;10.292;2023-04-06T10:40:28;5.82;;;3.75;;
65315;SDS011;51920;53.952;10.292;2023-04-06T10:42:55;6.32;;;3.92;;
65315;SDS011;51920;53.952;10.292;2023-04-06T10:45:32;7.17;;;4.10;;
65315;SDS011;51920;53.952;10.292;2023-04-06T10:47:59;6.70;;;3.90;;
65315;SDS011;51920;53.952;10.292;2023-04-06T10:50:26;5.32;;;4.10;;
65315;SDS011;51920;53.952;10.292;2023-04-06T10:52:59;5.07;;;3.72;;
65315;SDS011;51920;53.952;10.292;2023-04-06T10:55:27;5.93;;;3.90;;
65315;SDS011;51920;53.952;10.292;2023-04-06T10:57:55;5.07;;;3.73;;
65315;SDS011;51920;53.952;10.292;2023-04-06T11:00:22;4.88;;;3.70;;
65315;SDS011;51920;53.952;10.292;2023-04-06T11:02:48;5.93;;;3.97;;
65315;SDS011;51920;53.952;10.292;2023-04-06T11:05:15;5.60;;;4.40;;
65315;SDS011;51920;53.952;10.292;2023-04-06T11:07:43;6.47;;;4.10;;
65315;SDS011;51920;53.952;10.292;2023-04-06T11:10:10;6.30;;;3.97;;
65315;SDS011;51920;53.952;10.292;2023-04-06T11:12:41;5.97;;;4.05;;
65315;SDS011;51920;53.952;10.292;2023-04-06T11:15:07;6.72;;;4.18;;
65315;SDS011;51920;53.952;10.292;2023-04-06T11:17:35;6.68;;;4.07;;
65315;SDS011;51920;53.952;10.292;2023-04-06T11:20:03;7.40;;;4.57;;
65315;SDS011;51920;53.952;10.292;2023-04-06T11:22:31;8.17;;;4.73;;
65315;SDS011;51920;53.952;10.292;2023-04-06T11:25:04;5.85;;;4.28;;
65315;SDS011;51920;53.952;10.292;2023-04-06T11:27:33;6.85;;;4.45;;
65315;SDS011;51920;53.952;10.292;2023-04-06T11:30:01;8.60;;;4.10;;
65315;SDS011;51920;53.952;10.292;2023-04-06T11:32:28;7.22;;;4.63;;
65315;SDS011;51920;53.952;10.292;2023-04-06T11:34:57;8.23;;;5.10;;
65315;SDS011;51920;53.952;10.292;2023-04-06T11:37:26;6.50;;;4.65;;
65315;SDS011;51920;53.952;10.292;2023-04-06T11:39:54;7.47;;;4.65;;
65315;SDS011;51920;53.952;10.292;2023-04-06T11:42:23;6.70;;;4.72;;
65315;SDS011;51920;53.952;10.292;2023-04-06T11:44:51;7.82;;;5.18;;
65315;SDS011;51920;53.952;10.292;2023-04-06T11:47:26;7.80;;;5.13;;
65315;SDS011;51920;53.952;10.292;2023-04-06T11:49:55;10.05;;;5.97;;
65315;SDS011;51920;53.952;10.292;2023-04-06T11:52:23;9.15;;;5.75;;
65315;SDS011;51920;53.952;10.292;2023-04-06T11:54:51;8.52;;;5.82;;
65315;SDS011;51920;53.952;10.292;2023-04-06T11:57:19;9.23;;;6.40;;
65315;SDS011;51920;53.952;10.292;2023-04-06T11:59:47;9.60;;;6.47;;
65315;SDS011;51920;53.952;10.292;2023-04-06T12:02:14;10.98;;;6.75;;
65315;SDS011;51920;53.952;10.292;2023-04-06T12:04:43;10.00;;;6.43;;
65315;SDS011;51920;53.952;10.292;2023-04-06T12:07:10;11.95;;;6.45;;
65315;SDS011;51920;53.952;10.292;2023-04-06T12:09:37;9.57;;;6.40;;
65315;SDS011;51920;53.952;10.292;2023-04-06T12:12:05;9.77;;;6.60;;
65315;SDS011;51920;53.952;10.292;2023-04-06T12:14:31;9.35;;;6.50;;
65315;SDS011;51920;53.952;10.292;2023-04-06T12:16:59;12.00;;;6.07;;
65315;SDS011;51920;53.952;10.292;2023-04-06T12:19:28;10.40;;;6.18;;
65315;SDS011;51920;53.952;10.292;2023-04-06T12:21:55;10.10;;;6.20;;
65315;SDS011;51920;53.952;10.292;2023-04-06T12:24:23;11.20;;;6.80;;
65315;SDS011;51920;53.952;10.292;2023-04-06T12:26:50;10.30;;;6.55;;
65315;SDS011;51920;53.952;10.292;2023-04-06T12:29:19;9.82;;;6.72;;
65315;SDS011;51920;53.952;10.292;2023-04-06T12:31:46;9.93;;;6.63;;
65315;SDS011;51920;53.952;10.292;2023-04-06T12:34:13;11.77;;;7.15;;
65315;SDS011;51920;53.952;10.292;2023-04-06T12:36:47;11.03;;;6.60;;
65315;SDS011;51920;53.952;10.292;2023-04-06T12:39:16;9.98;;;6.63;;
65315;SDS011;51920;53.952;10.292;2023-04-06T12:41:45;10.45;;;7.03;;
65315;SDS011;51920;53.952;10.292;2023-04-06T12:44:11;12.07;;;7.25;;
65315;SDS011;51920;53.952;10.292;2023-04-06T12:46:38;11.02;;;7.13;;
65315;SDS011;51920;53.952;10.292;2023-04-06T12:49:05;10.83;;;7.17;;
65315;SDS011;51920;53.952;10.292;2023-04-06T12:51:32;11.32;;;7.20;;
65315;SDS011;51920;53.952;10.292;2023-04-06T12:53:58;12.15;;;7.53;;
65315;SDS011;51920;53.952;10.292;2023-04-06T12:56:26;12.90;;;7.22;;
65315;SDS011;51920;53.952;10.292;2023-04-06T12:58:53;11.25;;;6.90;;
65315;SDS011;51920;53.952;10.292;2023-04-06T13:01:20;10.90;;;7.10;;
65315;SDS011;51920;53.952;10.292;2023-04-06T13:03:47;12.02;;;7.18;;
65315;SDS011;51920;53.952;10.292;2023-04-06T13:06:14;11.80;;;7.15;;
65315;SDS011;51920;53.952;10.292;2023-04-06T13:08:42;12.73;;;7.20;;
65315;SDS011;51920;53.952;10.292;2023-04-06T13:11:09;11.10;;;7.00;;
65315;SDS011;51920;53.952;10.292;2023-04-06T13:13:36;11.27;;;7.30;;
65315;SDS011;51920;53.952;10.292;2023-04-06T13:16:04;10.02;;;6.78;;
65315;SDS011;51920;53.952;10.292;2023-04-06T13:18:33;11.45;;;6.93;;
65315;SDS011;51920;53.952;10.292;2023-04-06T13:21:03;11.23;;;7.18;;
65315;SDS011;51920;53.952;10.292;2023-04-06T13:23:33;10.57;;;7.43;;
65315;SDS011;51920;53.952;10.292;2023-04-06T13:26:05;13.17;;;7.17;;
65315;SDS011;51920;53.952;10.292;2023-04-06T13:28:33;10.55;;;6.93;;
65315;SDS011;51920;53.952;10.292;2023-04-06T13:31:01;11.00;;;7.47;;
65315;SDS011;51920;53.952;10.292;2023-04-06T13:33:29;11.63;;;7.38;;
65315;SDS011;51920;53.952;10.292;2023-04-06T13:35:57;10.38;;;7.07;;
65315;SDS011;51920;53.952;10.292;2023-04-06T13:38:24;11.67;;;7.07;;
65315;SDS011;51920;53.952;10.292;2023-04-06T13:40:52;12.20;;;7.70;;
65315;SDS011;51920;53.952;10.292;2023-04-06T13:43:19;10.48;;;6.80;;
65315;SDS011;51920;53.952;10.292;2023-04-06T13:45:49;10.50;;;7.35;;
65315;SDS011;51920;53.952;10.292;2023-04-06T13:48:21;12.10;;;7.63;;
65315;SDS011;51920;53.952;10.292;2023-04-06T13:50:48;14.90;;;7.17;;
65315;SDS011;51920;53.952;10.292;2023-04-06T13:53:14;11.93;;;7.60;;
65315;SDS011;51920;53.952;10.292;2023-04-06T13:55:41;13.50;;;8.30;;
65315;SDS011;51920;53.952;10.292;2023-04-06T13:58:08;12.85;;;7.90;;
65315;SDS011;51920;53.952;10.292;2023-04-06T14:00:35;12.10;;;7.40;;
65315;SDS011;51920;53.952;10.292;2023-04-06T14:03:01;12.47;;;7.93;;
65315;SDS011;51920;53.952;10.292;2023-04-06T14:05:32;11.38;;;7.45;;
65315;SDS011;51920;53.952;10.292;2023-04-06T14:07:59;11.10;;;7.60;;
65315;SDS011;51920;53.952;10.292;2023-04-06T14:10:25;12.32;;;7.60;;
65315;SDS011;51920;53.952;10.292;2023-04-06T14:12:54;11.25;;;7.45;;
65315;SDS011;51920;53.952;10.292;2023-04-06T14:15:20;11.87;;;7.27;;
65315;SDS011;51920;53.952;10.292;2023-04-06T14:17:48;12.75;;;7.97;;
65315;SDS011;51920;53.952;10.292;2023-04-06T14:20:15;13.20;;;8.40;;
65315;SDS011;51920;53.952;10.292;2023-04-06T14:22:41;12.77;;;7.63;;
65315;SDS011;51920;53.952;10.292;2023-04-06T14:25:11;11.23;;;7.40;;
65315;SDS011;51920;53.952;10.292;2023-04-06T14:27:38;11.67;;;8.10;;
65315;SDS011;51920;53.952;10.292;2023-04-06T14:30:05;12.23;;;8.10;;
65315;SDS011;51920;53.952;10.292;2023-04-06T14:32:33;10.55;;;7.53;;
65315;SDS011;51920;53.952;10.292;2023-04-06T14:35:04;10.60;;;7.50;;
65315;SDS011;51920;53.952;10.292;2023-04-06T14:37:32;12.80;;;7.35;;
65315;SDS011;51920;53.952;10.292;2023-04-06T14:39:59;9.63;;;7.20;;